Time;durP1;ratioP1;P1;durP2;ratioP2;P2;SDS_P1;SDS_P2;PMS_P1;PMS_P2;Temp;Humidity;BMP_temperature;BMP_pressure;BME280_temperature;BME280_humidity;BME280_pressure;Samples;Min_cycle;Max_cycle;Signal;HPM_P1;HPM_P2
2022/08/05 00:00:09;;;;;;;5.65;1.52;;;18.90;99.90;;;;;;5079538;28;20055;-80
2022/08/05 00:02:36;;;;;;;2.97;1.50;;;18.90;99.90;;;;;;5080071;28;20386;-80
2022/08/05 00:05:02;;;;;;;1.98;1.77;;;18.90;99.90;;;;;;5060784;28;20040;-80
2022/08/05 00:07:28;;;;;;;1.90;1.67;;;18.90;99.90;;;;;;5079282;28;20105;-80
2022/08/05 00:09:53;;;;;;;1.90;1.40;;;18.90;99.90;;;;;;5078604;28;20111;-80
2022/08/05 00:12:19;;;;;;;2.67;1.75;;;18.90;99.90;;;;;;5060546;28;20044;-80
2022/08/05 00:14:44;;;;;;;2.25;1.83;;;18.80;99.90;;;;;;5079224;28;20104;-80
2022/08/05 00:17:10;;;;;;;1.80;1.67;;;18.80;99.90;;;;;;5060745;28;20044;-80
2022/08/05 00:19:36;;;;;;;4.10;1.70;;;18.80;99.90;;;;;;5060875;28;20553;-80
2022/08/05 00:22:02;;;;;;;1.25;1.13;;;18.90;99.90;;;;;;5079275;28;20040;-80
2022/08/05 00:24:28;;;;;;;3.83;1.73;;;18.80;99.90;;;;;;5079008;28;20055;-80
2022/08/05 00:26:53;;;;;;;5.03;2.33;;;18.80;99.90;;;;;;5059725;28;20229;-80
2022/08/05 00:29:22;;;;;;;2.88;1.40;;;18.80;99.90;;;;;;5078860;28;20051;-80
2022/08/05 00:31:48;;;;;;;2.63;1.48;;;18.80;99.90;;;;;;5060495;28;20547;-80
2022/08/05 00:34:14;;;;;;;1.45;1.20;;;18.70;99.90;;;;;;5060283;28;20047;-80
2022/08/05 00:36:39;;;;;;;3.00;1.42;;;18.70;99.90;;;;;;5061196;28;20047;-80
2022/08/05 00:39:06;;;;;;;2.17;1.10;;;18.70;99.90;;;;;;5079345;28;20040;-80
2022/08/05 00:41:33;;;;;;;4.13;1.77;;;18.70;99.90;;;;;;5077700;28;20087;-80
2022/08/05 00:43:59;;;;;;;2.45;1.55;;;18.70;99.90;;;;;;5079066;28;20040;-80
2022/08/05 00:46:25;;;;;;;1.30;1.00;;;18.70;99.90;;;;;;5078642;28;20116;-80
2022/08/05 00:48:51;;;;;;;1.13;1.08;;;18.70;99.90;;;;;;5078590;28;20123;-80
2022/08/05 00:51:19;;;;;;;4.20;2.20;;;18.70;99.90;;;;;;5078641;28;20040;-80
2022/08/05 00:53:44;;;;;;;2.60;1.50;;;18.70;99.90;;;;;;5060271;28;20066;-80
2022/08/05 00:56:10;;;;;;;2.83;1.08;;;18.70;99.90;;;;;;5059568;28;20040;-80
2022/08/05 00:58:36;;;;;;;6.65;1.25;;;18.70;99.90;;;;;;5078621;28;20505;-80
2022/08/05 01:01:02;;;;;;;2.38;1.60;;;18.70;99.90;;;;;;5078355;28;20048;-80
2022/08/05 01:03:29;;;;;;;1.20;1.10;;;18.70;99.90;;;;;;5078097;28;20036;-80
2022/08/05 01:05:54;;;;;;;3.58;1.50;;;18.70;99.90;;;;;;5078569;28;20052;-80
2022/08/05 01:08:20;;;;;;;4.18;1.60;;;18.70;99.90;;;;;;5060329;28;20596;-80
2022/08/05 01:10:54;;;;;;;2.03;1.83;;;18.70;99.90;;;;;;5077151;28;20063;-80
2022/08/05 01:13:26;;;;;;;1.67;1.45;;;18.70;99.90;;;;;;5078176;28;20166;-80
2022/08/05 01:15:58;;;;;;;1.75;1.50;;;18.70;99.90;;;;;;5077857;28;20418;-80
2022/08/05 01:18:25;;;;;;;;;;;18.60;99.90;;;;;;5060845;28;20116;-80
2022/08/05 01:21:09;;;;;;;1.15;0.98;;;18.60;99.90;;;;;;5081122;28;20014;-80
2022/08/05 01:23:56;;;;;;;1.08;0.80;;;18.60;99.90;;;;;;5082439;28;20101;-80
2022/08/05 01:26:42;;;;;;;1.02;0.88;;;18.60;99.90;;;;;;5062991;28;20048;-80
2022/08/05 01:29:16;;;;;;;2.30;1.25;;;18.60;99.90;;;;;;5064259;28;20101;-80
2022/08/05 01:31:50;;;;;;;1.60;1.50;;;18.60;99.90;;;;;;5064694;28;20467;-80
2022/08/05 01:34:36;;;;;;;4.53;1.50;;;18.50;99.90;;;;;;5064015;28;20559;-80
2022/08/05 01:37:11;;;;;;;1.33;1.10;;;18.60;99.90;;;;;;5082269;28;20051;-80
2022/08/05 01:39:40;;;;;;;1.42;1.15;;;18.60;99.90;;;;;;5063337;28;20044;-80
2022/08/05 01:42:09;;;;;;;1.05;0.95;;;18.60;99.90;;;;;;5082129;28;20590;-80
2022/08/05 01:44:37;;;;;;;1.10;0.98;;;18.60;99.90;;;;;;5081967;28;20781;-80
2022/08/05 01:47:03;;;;;;;1.30;1.00;;;18.50;99.90;;;;;;5082221;28;20119;-80
2022/08/05 01:49:30;;;;;;;5.15;1.63;;;18.50;99.90;;;;;;5082332;28;20036;-80
2022/08/05 01:51:59;;;;;;;0.80;0.80;;;18.50;99.90;;;;;;5081795;28;20419;-80
2022/08/05 01:54:32;;;;;;;1.85;1.45;;;18.40;99.90;;;;;;5080742;28;20075;-80
2022/08/05 01:57:00;;;;;;;2.47;1.42;;;18.40;99.90;;;;;;5082022;28;20231;-80
2022/08/05 01:59:26;;;;;;;3.72;1.63;;;18.30;99.90;;;;;;5063725;28;20055;-80
2022/08/05 02:01:55;;;;;;;1.55;1.40;;;18.30;99.90;;;;;;5063596;28;20048;-80
2022/08/05 02:04:22;;;;;;;1.48;0.93;;;18.30;99.90;;;;;;5063279;28;20036;-80
2022/08/05 02:06:48;;;;;;;2.55;1.58;;;18.30;99.90;;;;;;5081105;28;20034;-80
2022/08/05 02:09:14;;;;;;;3.88;1.40;;;18.30;99.90;;;;;;5081769;28;20048;-80
2022/08/05 02:12:01;;;;;;;1.50;1.40;;;18.30;99.90;;;;;;5081114;28;20316;-80
2022/08/05 02:14:32;;;;;;;1.77;1.08;;;18.20;99.90;;;;;;5063319;28;20036;-80
2022/08/05 02:17:05;;;;;;;3.95;1.45;;;18.20;99.90;;;;;;5081263;28;20046;-80
2022/08/05 02:19:36;;;;;;;1.35;1.23;;;18.10;99.90;;;;;;5080816;28;20486;-80
2022/08/05 02:22:27;;;;;;;1.45;1.25;;;18.20;99.90;;;;;;5081430;28;20169;-80
2022/08/05 02:25:17;;;;;;;1.17;1.08;;;18.20;99.90;;;;;;5079924;28;20066;-80
2022/08/05 02:27:47;;;;;;;4.95;1.35;;;18.10;99.90;;;;;;5062497;28;20059;-80
2022/08/05 02:30:15;;;;;;;3.50;1.65;;;18.10;99.90;;;;;;5081974;28;20102;-80
2022/08/05 02:32:45;;;;;;;1.60;1.45;;;18.10;99.90;;;;;;5079738;28;20062;-80
2022/08/05 02:35:15;;;;;;;3.30;1.85;;;18.10;99.90;;;;;;5080766;28;20044;-80
2022/08/05 02:37:42;;;;;;;2.05;1.77;;;18.00;99.90;;;;;;5080834;28;20059;-80
2022/08/05 02:40:09;;;;;;;2.35;1.52;;;18.00;99.90;;;;;;5079600;28;20396;-80
2022/08/05 02:42:35;;;;;;;3.28;2.10;;;18.00;99.90;;;;;;5080957;28;20478;-80
2022/08/05 02:45:02;;;;;;;2.35;1.65;;;18.00;99.90;;;;;;5080934;28;20144;-80
2022/08/05 02:47:31;;;;;;;1.98;1.35;;;18.00;99.90;;;;;;5062804;28;20658;-80
2022/08/05 02:49:57;;;;;;;1.75;1.25;;;18.00;99.90;;;;;;5081159;28;20119;-80
2022/08/05 02:52:23;;;;;;;1.60;1.33;;;18.00;99.90;;;;;;5062663;28;20562;-80
2022/08/05 02:54:50;;;;;;;1.75;1.20;;;18.00;99.90;;;;;;5079078;28;20518;-80
2022/08/05 02:57:18;;;;;;;1.60;1.20;;;18.00;99.90;;;;;;5080829;28;20071;-80
2022/08/05 02:59:49;;;;;;;1.63;1.33;;;18.00;99.90;;;;;;5080809;28;20127;-80
2022/08/05 03:02:18;;;;;;;3.63;1.95;;;18.00;99.90;;;;;;5080709;28;20329;-80
2022/08/05 03:04:45;;;;;;;1.88;1.77;;;18.00;99.90;;;;;;5062885;28;20157;-80
2022/08/05 03:07:11;;;;;;;2.55;1.45;;;18.00;99.90;;;;;;5080242;28;20040;-80
2022/08/05 03:09:38;;;;;;;4.65;2.03;;;18.00;99.90;;;;;;5079579;28;20055;-80
2022/08/05 03:12:05;;;;;;;3.78;2.25;;;17.90;99.90;;;;;;5062385;28;20047;-80
2022/08/05 03:14:30;;;;;;;2.35;2.08;;;17.90;99.90;;;;;;5079971;28;20138;-80
2022/08/05 03:16:56;;;;;;;5.97;3.15;;;17.90;99.90;;;;;;5080542;28;20119;-80
2022/08/05 03:19:21;;;;;;;3.05;2.75;;;17.90;99.90;;;;;;5080576;28;20383;-80
2022/08/05 03:21:47;;;;;;;5.25;2.60;;;17.80;99.90;;;;;;5062367;28;20036;-80
2022/08/05 03:24:13;;;;;;;3.13;2.83;;;17.80;99.90;;;;;;5061155;28;20194;-80
2022/08/05 03:26:38;;;;;;;2.88;2.47;;;17.80;99.90;;;;;;5080182;28;20055;-80
2022/08/05 03:29:04;;;;;;;2.65;2.40;;;17.80;99.90;;;;;;5079881;28;20036;-80
2022/08/05 03:31:31;;;;;;;2.45;2.25;;;17.70;99.90;;;;;;5062131;28;20055;-79
2022/08/05 03:33:57;;;;;;;3.20;2.90;;;17.70;99.90;;;;;;5080270;28;20055;-80
2022/08/05 03:36:24;;;;;;;2.65;2.45;;;17.70;99.90;;;;;;5079739;28;20032;-79
2022/08/05 03:38:49;;;;;;;4.90;2.22;;;17.70;99.90;;;;;;5080081;28;20047;-80
2022/08/05 03:41:16;;;;;;;4.70;2.72;;;17.70;99.90;;;;;;5079154;28;20040;-80
2022/08/05 03:43:41;;;;;;;2.58;2.33;;;17.70;99.90;;;;;;5060756;28;20051;-80
2022/08/05 03:46:07;;;;;;;3.17;2.92;;;17.70;99.90;;;;;;5061395;28;20047;-80
2022/08/05 03:48:33;;;;;;;3.08;2.67;;;17.60;99.90;;;;;;5080024;28;20248;-80
2022/08/05 03:51:12;;;;;;;3.25;2.90;;;17.60;99.90;;;;;;5079213;28;20662;-79
2022/08/05 03:53:51;;;;;;;2.75;2.53;;;17.60;99.90;;;;;;5061165;28;20048;-80
2022/08/05 03:56:31;;;;;;;4.55;2.53;;;17.60;99.90;;;;;;5078611;28;20509;-80
2022/08/05 03:59:09;;;;;;;8.40;3.00;;;17.60;99.90;;;;;;5079386;28;20131;-80
2022/08/05 04:01:38;;;;;;;5.35;2.08;;;17.60;99.90;;;;;;5079054;28;20037;-80
2022/08/05 04:04:05;;;;;;;8.77;2.30;;;17.50;99.90;;;;;;5061191;28;20051;-80
2022/08/05 04:06:33;;;;;;;3.60;2.88;;;17.50;99.90;;;;;;5079422;28;20036;-80
2022/08/05 04:09:00;;;;;;;4.28;2.75;;;17.50;99.90;;;;;;5060487;28;20406;-80
2022/08/05 04:11:26;;;;;;;5.05;3.13;;;17.50;99.90;;;;;;5079261;28;20055;-80
2022/08/05 04:13:53;;;;;;;4.32;2.75;;;17.40;99.90;;;;;;5078770;28;20036;-80
2022/08/05 04:16:19;;;;;;;3.40;2.95;;;17.40;99.90;;;;;;5079175;28;20121;-80
2022/08/05 04:18:45;;;;;;;4.57;2.88;;;17.40;99.90;;;;;;5060883;28;20044;-80
2022/08/05 04:21:11;;;;;;;3.78;2.42;;;17.40;99.90;;;;;;5078821;28;20102;-80
2022/08/05 04:23:38;;;;;;;1.85;1.73;;;17.30;99.90;;;;;;5079042;28;20086;-80
2022/08/05 04:26:03;;;;;;;3.22;2.75;;;17.40;99.90;;;;;;5077698;28;20549;-80
2022/08/05 04:28:30;;;;;;;3.97;2.70;;;17.40;99.90;;;;;;5060158;28;20177;-80
2022/08/05 04:30:56;;;;;;;2.50;2.10;;;17.40;99.90;;;;;;5078673;28;20501;-80
2022/08/05 04:33:22;;;;;;;5.75;2.47;;;17.40;99.90;;;;;;5079228;28;20044;-80
2022/08/05 04:35:47;;;;;;;3.67;2.70;;;17.30;99.90;;;;;;5078410;28;20177;-80
2022/08/05 04:38:13;;;;;;;5.53;3.22;;;17.30;99.90;;;;;;5060387;28;20071;-80
2022/08/05 04:40:39;;;;;;;2.95;2.67;;;17.20;99.90;;;;;;5059664;28;20043;-80
2022/08/05 04:43:05;;;;;;;4.07;3.60;;;17.30;99.90;;;;;;5078154;28;20126;-80
2022/08/05 04:45:32;;;;;;;2.83;2.50;;;17.30;99.90;;;;;;5078512;28;20442;-80
2022/08/05 04:48:04;;;;;;;2.60;2.35;;;17.30;99.90;;;;;;5060324;28;20517;-80
2022/08/05 04:50:31;;;;;;;3.95;3.25;;;17.30;99.90;;;;;;5078450;28;20251;-79
2022/08/05 04:52:56;;;;;;;2.67;2.47;;;17.30;99.90;;;;;;5060733;28;20047;-80
2022/08/05 04:55:22;;;;;;;3.10;2.63;;;17.30;99.90;;;;;;5077674;28;20571;-80
2022/08/05 04:57:47;;;;;;;2.95;2.50;;;17.30;99.90;;;;;;5059857;28;20426;-80
2022/08/05 05:00:13;;;;;;;5.47;2.95;;;17.30;99.90;;;;;;5078393;28;20312;-79
2022/08/05 05:02:39;;;;;;;9.15;2.95;;;17.30;99.90;;;;;;5078393;28;20118;-80
2022/08/05 05:05:05;;;;;;;4.35;2.88;;;17.30;99.90;;;;;;5078230;28;20052;-80
2022/08/05 05:07:31;;;;;;;2.35;2.15;;;17.30;99.90;;;;;;5078551;28;20048;-80
2022/08/05 05:09:56;;;;;;;7.63;2.20;;;17.30;99.90;;;;;;5077693;28;20073;-79
2022/08/05 05:12:23;;;;;;;3.17;2.45;;;17.40;99.90;;;;;;5078898;28;20346;-80
2022/08/05 05:14:48;;;;;;;3.67;3.05;;;17.40;99.90;;;;;;5078332;28;20146;-80
2022/08/05 05:17:14;;;;;;;3.45;3.15;;;17.40;99.90;;;;;;5078310;28;20044;-80
2022/08/05 05:19:40;;;;;;;2.45;2.25;;;17.40;99.90;;;;;;5077867;28;20382;-80
2022/08/05 05:22:06;;;;;;;2.45;2.25;;;17.40;99.90;;;;;;5060295;28;20347;-80
2022/08/05 05:24:31;;;;;;;3.15;2.85;;;17.40;99.90;;;;;;5077125;28;20051;-80
2022/08/05 05:26:57;;;;;;;3.97;2.00;;;17.40;99.90;;;;;;5059942;28;20048;-80
2022/08/05 05:29:23;;;;;;;4.18;2.53;;;17.40;99.90;;;;;;5078484;28;20106;-80
2022/08/05 05:31:48;;;;;;;3.90;2.22;;;17.40;99.90;;;;;;5059763;28;20040;-80
2022/08/05 05:34:14;;;;;;;2.17;1.95;;;17.50;99.90;;;;;;5077447;28;20524;-80
2022/08/05 05:36:39;;;;;;;3.75;1.48;;;17.50;99.90;;;;;;5078270;28;20044;-79
2022/08/05 05:39:05;;;;;;;1.60;1.48;;;17.50;99.90;;;;;;5058978;28;20048;-80
2022/08/05 05:41:31;;;;;;;2.65;1.27;;;17.60;99.90;;;;;;5077610;28;20036;-80
2022/08/05 05:43:57;;;;;;;2.10;1.90;;;17.60;99.90;;;;;;5078268;28;20028;-80
2022/08/05 05:46:22;;;;;;;1.50;1.17;;;17.60;99.90;;;;;;5060295;28;20520;-80
2022/08/05 05:48:48;;;;;;;1.20;1.08;;;17.70;99.90;;;;;;5059322;28;20653;-80
2022/08/05 05:51:18;;;;;;;2.00;1.83;;;17.70;99.90;;;;;;5059412;28;20405;-80
2022/08/05 05:53:44;;;;;;;2.53;1.00;;;17.80;99.90;;;;;;5076971;28;20102;-80
2022/08/05 05:56:09;;;;;;;1.70;0.98;;;17.80;99.90;;;;;;5077482;28;20060;-80
2022/08/05 05:58:35;;;;;;;5.88;1.33;;;17.80;99.90;;;;;;5077843;28;20055;-80
2022/08/05 06:01:00;;;;;;;1.00;1.00;;;17.90;99.90;;;;;;5059775;28;20089;-79
2022/08/05 06:03:26;;;;;;;1.25;1.15;;;17.90;99.90;;;;;;5077880;28;20055;-80
2022/08/05 06:05:51;;;;;;;1.15;1.05;;;17.90;99.90;;;;;;5078793;28;20390;-80
2022/08/05 06:08:17;;;;;;;1.15;0.95;;;18.00;99.90;;;;;;5081685;28;20433;-80
2022/08/05 06:10:42;;;;;;;1.40;1.30;;;18.00;99.90;;;;;;5080155;28;20629;-80
2022/08/05 06:13:08;;;;;;;1.90;1.13;;;18.00;99.90;;;;;;5063233;28;20040;-80
2022/08/05 06:15:34;;;;;;;1.50;1.10;;;18.00;99.90;;;;;;5081503;28;20055;-79
2022/08/05 06:17:59;;;;;;;1.23;1.15;;;18.10;99.90;;;;;;5081006;28;20036;-79
2022/08/05 06:20:25;;;;;;;0.85;0.85;;;18.10;99.90;;;;;;5081805;28;20044;-80
2022/08/05 06:22:50;;;;;;;1.83;1.00;;;18.10;99.90;;;;;;5081178;28;20060;-80
2022/08/05 06:25:16;;;;;;;3.15;1.17;;;18.10;99.90;;;;;;5079426;28;20039;-80
2022/08/05 06:27:41;;;;;;;0.93;0.90;;;18.10;99.90;;;;;;5081536;28;20069;-80
2022/08/05 06:30:09;;;;;;;1.30;0.80;;;18.20;99.90;;;;;;5081303;28;20505;-80
2022/08/05 06:32:34;;;;;;;0.73;0.73;;;18.20;99.90;;;;;;5080630;28;20044;-80
2022/08/05 06:35:00;;;;;;;1.67;1.00;;;18.20;99.90;;;;;;5062962;28;20055;-79
2022/08/05 06:37:27;;;;;;;1.10;1.05;;;18.20;99.90;;;;;;5081071;28;20084;-80
2022/08/05 06:39:52;;;;;;;1.33;0.98;;;18.30;99.90;;;;;;5079678;28;20123;-80
2022/08/05 06:42:18;;;;;;;1.42;0.73;;;18.20;99.90;;;;;;5080840;28;20135;-80
2022/08/05 06:44:43;;;;;;;3.33;1.60;;;18.20;99.90;;;;;;5081120;28;20036;-80
2022/08/05 06:47:09;;;;;;;0.88;0.88;;;18.20;99.90;;;;;;5062566;28;20055;-80
2022/08/05 06:49:35;;;;;;;3.30;1.00;;;18.20;99.90;;;;;;5081024;28;20051;-80
2022/08/05 06:52:00;;;;;;;0.77;0.65;;;18.20;99.90;;;;;;5081106;28;20429;-80
2022/08/05 06:54:26;;;;;;;0.77;0.77;;;18.20;99.90;;;;;;5079924;28;20051;-80
2022/08/05 06:56:51;;;;;;;1.30;0.77;;;18.20;99.90;;;;;;5080988;28;20417;-80
2022/08/05 06:59:17;;;;;;;1.98;1.00;;;18.30;99.90;;;;;;5080918;28;20054;-80
2022/08/05 07:01:42;;;;;;;0.70;0.70;;;18.30;99.90;;;;;;5080616;28;20117;-80
2022/08/05 07:04:09;;;;;;;1.20;0.70;;;18.20;99.90;;;;;;5062831;28;20059;-80
2022/08/05 07:06:34;;;;;;;1.10;0.85;;;18.30;99.90;;;;;;5080693;28;20040;-80
2022/08/05 07:09:00;;;;;;;3.25;1.35;;;18.30;99.90;;;;;;5079731;28;20047;-80
2022/08/05 07:11:27;;;;;;;1.75;0.93;;;18.30;99.90;;;;;;5080628;28;20144;-80
2022/08/05 07:16:49;;;;;;;1.40;1.13;;;18.40;99.90;;;;;;5080871;28;20052;-80
2022/08/05 07:19:17;;;;;;;0.98;0.70;;;18.40;99.90;;;;;;5079562;28;20044;-79
2022/08/05 07:21:48;;;;;;;1.55;0.63;;;18.30;99.90;;;;;;5080078;28;20048;-80
2022/08/05 07:24:14;;;;;;;4.15;1.95;;;18.30;99.90;;;;;;5079009;28;20036;-80
2022/08/05 07:26:40;;;;;;;1.50;0.63;;;18.40;99.90;;;;;;5080048;28;20040;-80
2022/08/05 07:29:07;;;;;;;0.73;0.73;;;18.30;99.90;;;;;;5080388;28;20119;-79
2022/08/05 07:31:33;;;;;;;1.00;0.88;;;18.30;99.90;;;;;;5062131;28;20032;-80
2022/08/05 07:33:58;;;;;;;2.38;0.70;;;18.40;99.90;;;;;;5062015;28;20124;-81
2022/08/05 07:36:24;;;;;;;1.73;0.88;;;18.40;99.90;;;;;;5080058;28;20032;-79
2022/08/05 07:38:50;;;;;;;2.55;0.60;;;18.50;99.90;;;;;;5079147;28;20538;-81
2022/08/05 07:41:20;;;;;;;1.75;1.10;;;18.50;99.90;;;;;;5079859;28;20035;-80
2022/08/05 07:43:46;;;;;;;1.55;1.17;;;18.50;99.90;;;;;;5061912;28;20137;-80
2022/08/05 07:46:12;;;;;;;1.00;0.70;;;18.40;99.90;;;;;;5079931;28;20032;-80
2022/08/05 07:48:38;;;;;;;0.95;0.55;;;18.40;99.90;;;;;;5079442;28;20399;-80
2022/08/05 07:51:04;;;;;;;0.73;0.65;;;18.30;99.90;;;;;;5079895;28;20047;-80
2022/08/05 07:53:29;;;;;;;0.90;0.63;;;18.40;99.90;;;;;;5078792;28;20040;-80
2022/08/05 07:55:55;;;;;;;8.43;1.00;;;18.40;99.90;;;;;;5061059;28;20044;-80
2022/08/05 07:58:21;;;;;;;2.17;1.00;;;18.50;99.90;;;;;;5079377;28;20660;-80
2022/08/05 08:00:46;;;;;;;1.88;0.70;;;18.50;99.90;;;;;;5079558;28;20118;-80
2022/08/05 08:03:12;;;;;;;1.00;0.88;;;18.60;99.90;;;;;;5079151;28;20446;-80
2022/08/05 08:05:42;;;;;;;0.75;0.52;;;18.60;99.90;;;;;;5079472;28;20457;-80
2022/08/05 08:08:12;;;;;;;0.93;0.30;;;18.70;99.90;;;;;;5061212;28;20363;-79
2022/08/05 08:10:38;;;;;;;1.27;0.93;;;18.70;99.90;;;;;;5060241;28;20426;-80
2022/08/05 08:13:04;;;;;;;0.47;0.47;;;18.70;99.90;;;;;;5079455;28;20047;-80
2022/08/05 08:15:30;;;;;;;1.17;0.70;;;18.70;99.90;;;;;;5061038;28;20449;-80
2022/08/05 08:17:56;;;;;;;0.52;0.50;;;18.70;99.90;;;;;;5078802;28;20247;-80
2022/08/05 08:20:23;;;;;;;1.80;0.70;;;18.70;99.90;;;;;;5079070;28;20493;-80
2022/08/05 08:22:53;;;;;;;0.60;0.60;;;18.60;99.90;;;;;;5079256;28;20063;-80
2022/08/05 08:25:19;;;;;;;0.57;0.57;;;18.60;99.90;;;;;;5078080;28;20059;-80
2022/08/05 08:27:44;;;;;;;0.73;0.73;;;18.60;99.90;;;;;;5060877;28;20570;-80
2022/08/05 08:30:11;;;;;;;2.60;0.40;;;18.60;99.90;;;;;;5060345;28;20052;-80
2022/08/05 08:32:37;;;;;;;0.68;0.60;;;18.70;99.90;;;;;;5060928;28;20044;-80
2022/08/05 08:35:03;;;;;;;0.73;0.52;;;18.70;99.90;;;;;;5079316;28;20055;-80
2022/08/05 08:37:28;;;;;;;5.68;0.95;;;18.70;99.90;;;;;;5060405;28;20529;-80
2022/08/05 08:39:54;;;;;;;1.98;0.80;;;18.80;99.90;;;;;;5043176;28;20093;-80
2022/08/05 08:42:21;;;;;;;1.00;0.50;;;18.80;99.90;;;;;;5061010;28;20125;-79
2022/08/05 08:44:48;;;;;;;1.23;0.57;;;18.80;99.90;;;;;;5060302;28;20051;-80
2022/08/05 08:47:14;;;;;;;1.65;0.70;;;18.80;99.90;;;;;;5060559;28;20044;-80
2022/08/05 08:49:46;;;;;;;0.98;0.68;;;18.80;99.90;;;;;;5078584;28;20116;-81
2022/08/05 08:52:16;;;;;;;0.65;0.57;;;18.90;99.90;;;;;;5078316;28;20177;-80
2022/08/05 08:54:43;;;;;;;0.50;0.50;;;18.90;99.90;;;;;;5077431;28;20036;-81
2022/08/05 08:57:10;;;;;;;0.68;0.47;;;18.90;99.90;;;;;;5060855;28;20067;-81
2022/08/05 08:59:36;;;;;;;0.35;0.35;;;18.90;99.90;;;;;;5078666;28;20414;-80
2022/08/05 09:02:05;;;;;;;1.35;0.73;;;18.90;99.90;;;;;;5060363;28;20535;-80
2022/08/05 09:04:36;;;;;;;0.35;0.30;;;18.90;99.90;;;;;;5078247;28;20059;-80
2022/08/05 09:07:05;;;;;;;0.20;0.20;;;18.90;99.90;;;;;;5078819;28;20032;-80
2022/08/05 09:09:35;;;;;;;0.65;0.63;;;18.90;99.90;;;;;;5059600;28;20089;-81
2022/08/05 09:12:06;;;;;;;0.30;0.30;;;18.90;99.90;;;;;;5078123;28;20513;-80
2022/08/05 09:14:33;;;;;;;1.38;0.50;;;19.00;99.90;;;;;;5077916;28;20063;-80
2022/08/05 09:16:59;;;;;;;0.95;0.60;;;19.00;99.90;;;;;;5078155;28;20044;-80
2022/08/05 09:19:25;;;;;;;0.68;0.38;;;19.00;99.90;;;;;;5078237;28;20036;-81
2022/08/05 09:21:50;;;;;;;5.88;0.68;;;19.00;99.90;;;;;;5078298;28;20528;-80
2022/08/05 09:24:16;;;;;;;1.88;0.57;;;19.00;99.90;;;;;;5059097;28;20051;-81
2022/08/05 09:26:49;;;;;;;0.30;0.30;;;19.00;99.90;;;;;;5078226;28;20478;-80
2022/08/05 09:29:14;;;;;;;0.55;0.28;;;19.00;99.90;;;;;;5077943;28;20040;-80
2022/08/05 09:31:42;;;;;;;0.20;0.20;;;19.00;99.90;;;;;;5078002;28;20235;-80
2022/08/05 09:34:09;;;;;;;0.68;0.40;;;19.10;99.90;;;;;;5060569;28;20059;-80
2022/08/05 09:36:49;;;;;;;0.50;0.50;;;19.10;99.90;;;;;;5078409;28;20044;-80
2022/08/05 09:39:16;;;;;;;0.32;0.28;;;19.10;99.90;;;;;;5076914;28;20497;-80
2022/08/05 09:41:58;;;;;;;0.40;0.40;;;19.10;99.90;;;;;;5080341;28;20093;-81
2022/08/05 09:44:38;;;;;;;0.28;0.28;;;19.10;99.90;;;;;;5081740;28;20044;-81
2022/08/05 09:47:16;;;;;;;2.17;0.68;;;19.10;99.90;;;;;;5082302;28;20335;-80
2022/08/05 09:49:54;;;;;;;0.95;0.30;;;19.10;99.90;;;;;;5063778;28;20036;-81
2022/08/05 09:52:28;;;;;;;0.22;0.22;;;19.10;99.90;;;;;;5082222;28;20477;-80
2022/08/05 09:54:55;;;;;;;0.30;0.30;;;19.20;99.90;;;;;;5081455;28;20076;-80
2022/08/05 09:57:48;;;;;;;1.08;0.40;;;19.10;99.90;;;;;;5082138;28;20135;-80
2022/08/05 10:00:19;;;;;;;0.50;0.35;;;19.10;99.90;;;;;;5063486;28;20078;-80
2022/08/05 10:02:50;;;;;;;1.02;0.50;;;19.20;99.90;;;;;;5081635;28;20055;-81
2022/08/05 10:05:21;;;;;;;0.55;0.40;;;19.20;99.90;;;;;;5081852;28;20044;-80
2022/08/05 10:07:54;;;;;;;5.40;0.70;;;19.20;99.90;;;;;;5063643;28;20647;-80
2022/08/05 10:10:23;;;;;;;1.40;0.80;;;19.30;99.90;;;;;;5080559;28;20286;-79
2022/08/05 10:12:55;;;;;;;0.57;0.52;;;19.30;99.90;;;;;;5063527;28;20139;-81
2022/08/05 10:15:34;;;;;;;0.73;0.38;;;19.30;99.90;;;;;;5080866;28;20074;-80
2022/08/05 10:18:08;;;;;;;0.50;0.30;;;19.40;99.90;;;;;;5081380;28;20040;-80
2022/08/05 10:20:46;;;;;;;0.47;0.47;;;19.40;99.90;;;;;;5062742;28;20087;-81
2022/08/05 10:23:15;;;;;;;1.55;0.45;;;19.50;99.90;;;;;;5080907;28;20236;-81
2022/08/05 10:25:40;;;;;;;1.25;0.28;;;19.50;99.90;;;;;;5063171;28;20096;-80
2022/08/05 10:28:06;;;;;;;3.05;0.50;;;19.50;99.90;;;;;;5062740;28;20609;-80
2022/08/05 10:30:33;;;;;;;0.50;0.30;;;19.60;99.90;;;;;;5081461;28;20047;-80
2022/08/05 10:32:59;;;;;;;1.42;0.75;;;19.60;99.90;;;;;;5081196;28;20036;-81
2022/08/05 10:35:25;;;;;;;0.85;0.30;;;19.60;99.90;;;;;;5080666;28;20055;-80
2022/08/05 10:37:52;;;;;;;0.55;0.38;;;19.60;99.90;;;;;;5081388;28;20605;-80
2022/08/05 10:40:50;;;;;;;0.25;0.25;;;19.60;99.90;;;;;;5080344;28;20256;-80
2022/08/05 10:43:40;;;;;;;0.55;0.40;;;19.70;99.90;;;;;;5063421;28;20490;-80
2022/08/05 10:46:08;;;;;;;0.40;0.40;;;19.70;99.90;;;;;;5081253;28;20603;-80
2022/08/05 10:48:45;;;;;;;0.90;0.32;;;19.70;99.90;;;;;;5080664;28;20520;-80
2022/08/05 10:51:15;;;;;;;1.25;0.40;;;19.70;99.90;;;;;;5081263;28;20076;-80
2022/08/05 10:53:49;;;;;;;0.63;0.57;;;19.80;99.90;;;;;;5078931;28;20230;-80
2022/08/05 10:56:17;;;;;;;0.70;0.30;;;19.80;99.90;;;;;;5081061;28;20052;-80
2022/08/05 10:59:00;;;;;;;0.63;0.43;;;19.80;99.90;;;;;;5080866;28;20036;-81
2022/08/05 11:01:33;;;;;;;0.50;0.50;;;19.90;99.90;;;;;;5062324;28;20044;-80
2022/08/05 11:04:11;;;;;;;3.03;0.60;;;19.90;99.90;;;;;;5080622;28;20044;-80
2022/08/05 11:07:05;;;;;;;0.68;0.65;;;19.80;99.90;;;;;;5080225;28;20052;-80
2022/08/05 11:10:00;;;;;;;0.20;0.20;;;19.80;99.90;;;;;;5079020;28;20051;-80
2022/08/05 11:12:42;;;;;;;1.02;0.47;;;19.70;99.90;;;;;;5077701;28;20047;-80
2022/08/05 11:15:15;;;;;;;1.45;0.43;;;19.80;99.90;;;;;;5080613;28;20052;-81
2022/08/05 11:17:42;;;;;;;0.30;0.30;;;19.80;99.90;;;;;;5062329;28;20051;-80
2022/08/05 11:20:36;;;;;;;1.65;0.30;;;19.80;99.90;;;;;;5080268;28;20109;-80
2022/08/05 11:23:40;;;;;;;0.65;0.40;;;19.70;99.90;;;;;;5079218;28;20097;-81
2022/08/05 11:26:24;;;;;;;4.75;0.40;;;19.70;99.90;;;;;;5079988;28;20044;-81
2022/08/05 11:28:52;;;;;;;0.25;0.25;;;19.70;99.90;;;;;;5062350;28;20497;-80
2022/08/05 11:31:22;;;;;;;0.57;0.57;;;19.70;99.90;;;;;;5062408;28;20352;-81
2022/08/05 11:33:48;;;;;;;0.52;0.30;;;19.70;99.90;;;;;;5061900;28;20510;-80
2022/08/05 11:36:17;;;;;;;1.42;1.17;;;19.70;99.90;;;;;;5080515;28;20039;-81
2022/08/05 11:38:42;;;;;;;1.88;0.35;;;19.70;99.90;;;;;;5060565;28;20529;-81
2022/08/05 11:41:21;;;;;;;0.90;0.32;;;19.70;99.90;;;;;;5061696;28;20044;-80
2022/08/05 11:44:01;;;;;;;0.47;0.47;;;19.70;99.90;;;;;;5061999;28;20118;-80
2022/08/05 11:46:37;;;;;;;1.23;0.43;;;19.80;99.90;;;;;;5080113;28;20036;-80
2022/08/05 11:49:04;;;;;;;0.40;0.30;;;19.80;99.90;;;;;;5079644;28;20067;-80
2022/08/05 11:51:30;;;;;;;0.30;0.30;;;19.90;99.90;;;;;;5079410;28;20051;-80
2022/08/05 11:53:56;;;;;;;0.20;0.20;;;19.90;99.90;;;;;;5078778;28;20475;-81
2022/08/05 11:56:22;;;;;;;0.60;0.60;;;19.90;99.90;;;;;;5079404;28;20501;-81
2022/08/05 11:58:51;;;;;;;0.30;0.30;;;20.00;99.90;;;;;;5044860;28;20131;-80
2022/08/05 12:01:20;;;;;;;0.40;0.30;;;20.00;99.90;;;;;;5080240;28;20044;-80
2022/08/05 12:03:48;;;;;;;0.40;0.40;;;20.00;99.90;;;;;;5060961;28;20051;-80
2022/08/05 12:06:15;;;;;;;1.95;0.30;;;20.00;99.90;;;;;;5079428;28;20237;-80
2022/08/05 12:08:43;;;;;;;2.47;0.77;;;20.00;99.90;;;;;;5078381;28;20036;-80
2022/08/05 12:11:10;;;;;;;2.92;0.65;;;19.90;99.90;;;;;;5079081;28;20044;-81
2022/08/05 12:13:37;;;;;;;0.40;0.40;;;19.90;99.90;;;;;;5060985;28;20074;-81
2022/08/05 12:16:07;;;;;;;0.38;0.38;;;19.90;99.90;;;;;;5079128;28;20597;-80
2022/08/05 12:18:34;;;;;;;1.05;0.95;;;19.80;99.90;;;;;;5078998;28;20119;-81
2022/08/05 12:21:13;;;;;;;0.30;0.30;;;19.80;99.90;;;;;;5079310;28;20047;-81
2022/08/05 12:23:49;;;;;;;0.30;0.30;;;19.80;99.90;;;;;;5059809;28;20393;-81
2022/08/05 12:26:15;;;;;;;0.30;0.30;;;19.80;99.90;;;;;;5078981;28;20032;-81
2022/08/05 12:28:40;;;;;;;2.60;0.45;;;19.80;99.90;;;;;;5078602;28;20314;-81
2022/08/05 12:31:07;;;;;;;0.40;0.40;;;19.90;99.90;;;;;;5078937;28;20028;-80
2022/08/05 12:33:33;;;;;;;0.20;0.20;;;19.90;99.90;;;;;;5061002;28;20132;-80
2022/08/05 12:36:00;;;;;;;0.70;0.30;;;20.00;99.90;;;;;;5060439;28;20541;-80
2022/08/05 12:38:25;;;;;;;0.30;0.30;;;19.90;99.90;;;;;;5060163;28;20052;-81
2022/08/05 12:40:52;;;;;;;0.30;0.30;;;20.00;99.90;;;;;;5061328;28;20460;-80
2022/08/05 12:43:18;;;;;;;0.65;0.65;;;20.00;99.90;;;;;;5078646;28;20480;-80
2022/08/05 12:45:54;;;;;;;1.95;0.38;;;20.00;99.90;;;;;;5079141;28;20035;-80
2022/08/05 12:48:21;;;;;;;0.35;0.20;;;20.00;99.90;;;;;;5079074;28;20048;-80
2022/08/05 12:51:11;;;;;;;0.63;0.47;;;20.00;99.90;;;;;;5078646;28;20040;-80
2022/08/05 12:53:41;;;;;;;0.80;0.50;;;20.00;99.90;;;;;;5077940;28;20475;-80
2022/08/05 12:56:20;;;;;;;4.00;0.65;;;20.00;99.90;;;;;;5078695;28;20115;-81
2022/08/05 12:59:05;;;;;;;3.45;1.48;;;20.00;99.90;;;;;;5078598;28;20090;-81